sensor_id;sensor_type;location;lat;lon;timestamp;pressure;altitude;pressure_sealevel;temperature;humidity
59391;BME280;53405;57.012;40.984;2023-04-16T00:01:28;101830.19;;;1.10;47.30
59391;BME280;53405;57.012;40.984;2023-04-16T00:03:56;101819.00;;;1.10;47.06
59391;BME280;53405;57.012;40.984;2023-04-16T00:06:24;101820.75;;;1.09;47.33
59391;BME280;53405;57.012;40.984;2023-04-16T00:08:51;101819.75;;;1.12;47.09
59391;BME280;53405;57.012;40.984;2023-04-16T00:11:19;101825.94;;;1.09;47.25
59391;BME280;53405;57.012;40.984;2023-04-16T00:13:47;101832.78;;;1.10;46.66
59391;BME280;53405;57.012;40.984;2023-04-16T00:16:14;101827.59;;;1.10;46.66
59391;BME280;53405;57.012;40.984;2023-04-16T00:18:42;101825.00;;;1.10;46.50
59391;BME280;53405;57.012;40.984;2023-04-16T00:21:10;101825.44;;;1.01;46.26
59391;BME280;53405;57.012;40.984;2023-04-16T00:23:37;101823.69;;;1.01;46.84
59391;BME280;53405;57.012;40.984;2023-04-16T00:26:05;101819.97;;;1.07;46.47
59391;BME280;53405;57.012;40.984;2023-04-16T00:28:33;101822.41;;;1.10;46.60
59391;BME280;53405;57.012;40.984;2023-04-16T00:31:00;101818.28;;;1.06;46.50
59391;BME280;53405;57.012;40.984;2023-04-16T00:33:28;101832.03;;;1.08;46.38
59391;BME280;53405;57.012;40.984;2023-04-16T00:35:56;101821.03;;;1.03;46.45
59391;BME280;53405;57.012;40.984;2023-04-16T00:38:24;101816.06;;;0.98;46.44
59391;BME280;53405;57.012;40.984;2023-04-16T00:40:56;101788.22;;;0.83;46.42
59391;BME280;53405;57.012;40.984;2023-04-16T00:43:26;101827.06;;;1.03;46.36
59391;BME280;53405;57.012;40.984;2023-04-16T00:45:55;101812.84;;;0.93;46.73
59391;BME280;53405;57.012;40.984;2023-04-16T00:48:23;101810.66;;;0.84;46.92
59391;BME280;53405;57.012;40.984;2023-04-16T00:50:54;101802.38;;;0.76;47.05
59391;BME280;53405;57.012;40.984;2023-04-16T00:53:22;101825.31;;;0.85;46.96
59391;BME280;53405;57.012;40.984;2023-04-16T00:55:50;101819.97;;;0.88;46.81
59391;BME280;53405;57.012;40.984;2023-04-16T00:58:18;101823.50;;;0.87;47.08
59391;BME280;53405;57.012;40.984;2023-04-16T01:00:46;101822.56;;;0.88;47.14
59391;BME280;53405;57.012;40.984;2023-04-16T01:03:14;101817.31;;;0.89;47.32
59391;BME280;53405;57.012;40.984;2023-04-16T01:05:43;101825.75;;;0.95;48.14
59391;BME280;53405;57.012;40.984;2023-04-16T01:08:19;101821.31;;;0.97;47.51
59391;BME280;53405;57.012;40.984;2023-04-16T01:10:47;101822.00;;;1.00;47.83
59391;BME280;53405;57.012;40.984;2023-04-16T01:13:15;101817.72;;;0.99;47.75
59391;BME280;53405;57.012;40.984;2023-04-16T01:15:42;101826.50;;;0.97;48.24
59391;BME280;53405;57.012;40.984;2023-04-16T01:18:15;101822.34;;;0.93;47.42
59391;BME280;53405;57.012;40.984;2023-04-16T01:20:43;101808.28;;;0.79;48.41
59391;BME280;53405;57.012;40.984;2023-04-16T01:23:11;101781.34;;;0.63;48.29
59391;BME280;53405;57.012;40.984;2023-04-16T01:25:39;101820.19;;;0.83;47.92
59391;BME280;53405;57.012;40.984;2023-04-16T01:28:07;101812.25;;;0.86;47.35
59391;BME280;53405;57.012;40.984;2023-04-16T01:30:34;101820.13;;;0.85;47.59
59391;BME280;53405;57.012;40.984;2023-04-16T01:33:11;101815.06;;;0.82;47.41
59391;BME280;53405;57.012;40.984;2023-04-16T01:35:40;101815.84;;;0.84;47.99
59391;BME280;53405;57.012;40.984;2023-04-16T01:38:08;101805.47;;;0.65;48.76
59391;BME280;53405;57.012;40.984;2023-04-16T01:40:36;101810.09;;;0.77;48.44
59391;BME280;53405;57.012;40.984;2023-04-16T01:43:04;101799.09;;;0.72;48.45
59391;BME280;53405;57.012;40.984;2023-04-16T01:45:32;101816.63;;;0.86;48.20
59391;BME280;53405;57.012;40.984;2023-04-16T01:48:00;101800.78;;;0.73;48.57
59391;BME280;53405;57.012;40.984;2023-04-16T01:50:29;101806.78;;;0.74;48.69
59391;BME280;53405;57.012;40.984;2023-04-16T01:52:57;101805.63;;;0.81;48.87
59391;BME280;53405;57.012;40.984;2023-04-16T01:55:25;101806.50;;;0.80;48.01
59391;BME280;53405;57.012;40.984;2023-04-16T01:57:54;101805.09;;;0.72;48.20
59391;BME280;53405;57.012;40.984;2023-04-16T02:00:26;101814.66;;;0.72;49.00
59391;BME280;53405;57.012;40.984;2023-04-16T02:02:53;101785.16;;;0.56;48.90
59391;BME280;53405;57.012;40.984;2023-04-16T02:05:25;101811.97;;;0.74;48.25
59391;BME280;53405;57.012;40.984;2023-04-16T02:07:53;101809.53;;;0.70;48.37
59391;BME280;53405;57.012;40.984;2023-04-16T02:10:20;101815.47;;;0.72;47.93
59391;BME280;53405;57.012;40.984;2023-04-16T02:12:49;101826.78;;;0.71;47.09
59391;BME280;53405;57.012;40.984;2023-04-16T02:15:17;101817.38;;;0.69;47.54
59391;BME280;53405;57.012;40.984;2023-04-16T02:17:45;101818.38;;;0.66;47.56
59391;BME280;53405;57.012;40.984;2023-04-16T02:20:14;101809.25;;;0.58;47.35
59391;BME280;53405;57.012;40.984;2023-04-16T02:22:51;101810.22;;;0.55;46.92
59391;BME280;53405;57.012;40.984;2023-04-16T02:25:21;101787.38;;;0.44;46.64
59391;BME280;53405;57.012;40.984;2023-04-16T02:27:54;101809.72;;;0.66;47.46
59391;BME280;53405;57.012;40.984;2023-04-16T02:30:38;101807.00;;;0.69;46.29
59391;BME280;53405;57.012;40.984;2023-04-16T02:33:08;101811.78;;;0.78;47.26
59391;BME280;53405;57.012;40.984;2023-04-16T02:35:42;101807.41;;;0.79;47.45
59391;BME280;53405;57.012;40.984;2023-04-16T02:38:09;101813.34;;;0.82;47.09
59391;BME280;53405;57.012;40.984;2023-04-16T02:40:37;101793.97;;;0.70;47.07
59391;BME280;53405;57.012;40.984;2023-04-16T02:43:05;101809.13;;;0.80;47.30
59391;BME280;53405;57.012;40.984;2023-04-16T02:45:32;101822.91;;;0.80;47.50
59391;BME280;53405;57.012;40.984;2023-04-16T02:48:01;101823.72;;;0.82;46.42
59391;BME280;53405;57.012;40.984;2023-04-16T02:50:29;101822.78;;;0.83;46.67
59391;BME280;53405;57.012;40.984;2023-04-16T02:53:00;101821.81;;;0.86;46.84
59391;BME280;53405;57.012;40.984;2023-04-16T02:55:28;101818.25;;;0.88;47.17
59391;BME280;53405;57.012;40.984;2023-04-16T02:57:56;101817.72;;;0.99;47.30
59391;BME280;53405;57.012;40.984;2023-04-16T03:00:23;101823.34;;;1.09;47.43
59391;BME280;53405;57.012;40.984;2023-04-16T03:02:52;101819.59;;;1.15;48.06
59391;BME280;53405;57.012;40.984;2023-04-16T03:05:19;101824.50;;;1.21;46.87
59391;BME280;53405;57.012;40.984;2023-04-16T03:07:47;101827.78;;;1.24;47.28
59391;BME280;53405;57.012;40.984;2023-04-16T03:10:16;101828.94;;;1.19;47.20
59391;BME280;53405;57.012;40.984;2023-04-16T03:12:45;101824.22;;;1.27;46.67
59391;BME280;53405;57.012;40.984;2023-04-16T03:15:13;101827.31;;;1.16;47.00
59391;BME280;53405;57.012;40.984;2023-04-16T03:17:40;101803.41;;;1.10;46.46
59391;BME280;53405;57.012;40.984;2023-04-16T03:20:08;101825.34;;;1.21;46.17
59391;BME280;53405;57.012;40.984;2023-04-16T03:22:37;101836.91;;;1.33;46.76
59391;BME280;53405;57.012;40.984;2023-04-16T03:25:06;101832.97;;;1.43;46.97
59391;BME280;53405;57.012;40.984;2023-04-16T03:27:34;101837.69;;;1.53;46.07
59391;BME280;53405;57.012;40.984;2023-04-16T03:30:02;101839.47;;;1.52;45.54
59391;BME280;53405;57.012;40.984;2023-04-16T03:32:33;101833.97;;;1.58;45.27
59391;BME280;53405;57.012;40.984;2023-04-16T03:35:04;101848.81;;;1.74;45.58
59391;BME280;53405;57.012;40.984;2023-04-16T03:37:33;101832.28;;;1.75;45.25
59391;BME280;53405;57.012;40.984;2023-04-16T03:40:01;101839.63;;;1.84;44.42
59391;BME280;53405;57.012;40.984;2023-04-16T03:42:30;101836.66;;;1.92;44.05
59391;BME280;53405;57.012;40.984;2023-04-16T03:44:58;101840.97;;;1.93;44.08
59391;BME280;53405;57.012;40.984;2023-04-16T03:47:31;101838.81;;;2.01;43.15
59391;BME280;53405;57.012;40.984;2023-04-16T03:50:02;101839.47;;;2.05;42.32
59391;BME280;53405;57.012;40.984;2023-04-16T03:52:30;101840.03;;;2.11;42.65
59391;BME280;53405;57.012;40.984;2023-04-16T03:54:58;101801.03;;;1.94;42.17
59391;BME280;53405;57.012;40.984;2023-04-16T03:57:32;101839.53;;;2.21;41.97
59391;BME280;53405;57.012;40.984;2023-04-16T04:00:06;101843.22;;;2.34;41.29
59391;BME280;53405;57.012;40.984;2023-04-16T04:02:52;101845.03;;;2.49;39.86
59391;BME280;53405;57.012;40.984;2023-04-16T04:05:20;101842.25;;;2.52;39.82
59391;BME280;53405;57.012;40.984;2023-04-16T04:07:48;101843.44;;;2.63;38.08
59391;BME280;53405;57.012;40.984;2023-04-16T04:10:16;101841.34;;;2.69;38.13
59391;BME280;53405;57.012;40.984;2023-04-16T04:12:45;101844.31;;;2.79;36.14
59391;BME280;53405;57.012;40.984;2023-04-16T04:15:13;101832.47;;;2.89;36.37
59391;BME280;53405;57.012;40.984;2023-04-16T04:17:41;101838.09;;;2.98;35.72
59391;BME280;53405;57.012;40.984;2023-04-16T04:20:10;101835.94;;;3.06;35.95
59391;BME280;53405;57.012;40.984;2023-04-16T04:22:39;101834.75;;;3.12;35.66
59391;BME280;53405;57.012;40.984;2023-04-16T04:25:08;101836.19;;;3.17;35.01
59391;BME280;53405;57.012;40.984;2023-04-16T04:27:36;101837.50;;;3.24;35.20
59391;BME280;53405;57.012;40.984;2023-04-16T04:30:04;101836.44;;;3.29;36.03
59391;BME280;53405;57.012;40.984;2023-04-16T04:32:33;101844.22;;;3.44;35.35
59391;BME280;53405;57.012;40.984;2023-04-16T04:35:02;101842.88;;;3.37;37.82
59391;BME280;53405;57.012;40.984;2023-04-16T04:37:31;101831.78;;;3.50;37.26
59391;BME280;53405;57.012;40.984;2023-04-16T04:40:07;101838.41;;;3.55;36.48
59391;BME280;53405;57.012;40.984;2023-04-16T04:42:36;101836.28;;;3.62;36.43
59391;BME280;53405;57.012;40.984;2023-04-16T04:45:04;101826.25;;;3.70;36.37
59391;BME280;53405;57.012;40.984;2023-04-16T04:47:33;101838.75;;;3.79;35.92
59391;BME280;53405;57.012;40.984;2023-04-16T04:50:01;101835.38;;;3.93;35.95
59391;BME280;53405;57.012;40.984;2023-04-16T04:52:30;101826.25;;;4.01;35.82
59391;BME280;53405;57.012;40.984;2023-04-16T04:54:59;101829.16;;;4.10;35.09
59391;BME280;53405;57.012;40.984;2023-04-16T04:57:28;101821.91;;;4.15;35.37
59391;BME280;53405;57.012;40.984;2023-04-16T04:59:57;101830.97;;;4.39;35.50
59391;BME280;53405;57.012;40.984;2023-04-16T05:02:26;101829.09;;;4.55;36.29
59391;BME280;53405;57.012;40.984;2023-04-16T05:04:54;101821.44;;;4.66;33.60
59391;BME280;53405;57.012;40.984;2023-04-16T05:07:21;101821.22;;;4.84;32.49
59391;BME280;53405;57.012;40.984;2023-04-16T05:09:49;101826.91;;;4.91;34.02
59391;BME280;53405;57.012;40.984;2023-04-16T05:12:17;101818.94;;;5.06;33.14
59391;BME280;53405;57.012;40.984;2023-04-16T05:14:44;101824.13;;;5.21;33.93
59391;BME280;53405;57.012;40.984;2023-04-16T05:17:12;101817.16;;;5.34;33.82
59391;BME280;53405;57.012;40.984;2023-04-16T05:19:40;101819.84;;;5.47;32.58
59391;BME280;53405;57.012;40.984;2023-04-16T05:22:08;101824.25;;;5.59;31.88
59391;BME280;53405;57.012;40.984;2023-04-16T05:24:35;101811.63;;;5.66;32.84
59391;BME280;53405;57.012;40.984;2023-04-16T05:27:03;101818.34;;;5.83;32.37
59391;BME280;53405;57.012;40.984;2023-04-16T05:29:32;101820.25;;;5.94;32.52
59391;BME280;53405;57.012;40.984;2023-04-16T05:32:01;101819.34;;;6.08;33.25
59391;BME280;53405;57.012;40.984;2023-04-16T05:34:28;101818.41;;;6.22;33.12
59391;BME280;53405;57.012;40.984;2023-04-16T05:36:57;101823.31;;;6.39;34.17
59391;BME280;53405;57.012;40.984;2023-04-16T05:39:24;101826.66;;;6.28;33.56
59391;BME280;53405;57.012;40.984;2023-04-16T05:41:52;101793.69;;;6.13;32.53
59391;BME280;53405;57.012;40.984;2023-04-16T05:44:20;101823.09;;;6.55;32.43
59391;BME280;53405;57.012;40.984;2023-04-16T05:46:47;101819.94;;;6.63;33.95
59391;BME280;53405;57.012;40.984;2023-04-16T05:49:16;101817.00;;;6.67;33.09
59391;BME280;53405;57.012;40.984;2023-04-16T05:51:45;101817.13;;;6.66;32.97
59391;BME280;53405;57.012;40.984;2023-04-16T05:54:12;101820.53;;;6.79;32.31
59391;BME280;53405;57.012;40.984;2023-04-16T05:56:40;101814.63;;;6.88;32.85
59391;BME280;53405;57.012;40.984;2023-04-16T05:59:07;101822.34;;;7.03;31.12
59391;BME280;53405;57.012;40.984;2023-04-16T06:01:35;101820.25;;;7.08;30.90
59391;BME280;53405;57.012;40.984;2023-04-16T06:04:03;101823.59;;;7.10;33.07
59391;BME280;53405;57.012;40.984;2023-04-16T06:06:31;101815.22;;;7.05;31.94
59391;BME280;53405;57.012;40.984;2023-04-16T06:08:58;101814.97;;;7.21;31.45
59391;BME280;53405;57.012;40.984;2023-04-16T06:11:26;101821.53;;;7.27;31.06
59391;BME280;53405;57.012;40.984;2023-04-16T06:13:54;101826.47;;;7.42;30.97
59391;BME280;53405;57.012;40.984;2023-04-16T06:16:22;101824.09;;;7.39;29.12
59391;BME280;53405;57.012;40.984;2023-04-16T06:18:49;101816.16;;;7.52;28.48
59391;BME280;53405;57.012;40.984;2023-04-16T06:21:17;101818.50;;;7.68;28.15
59391;BME280;53405;57.012;40.984;2023-04-16T06:23:45;101818.41;;;7.81;25.98
59391;BME280;53405;57.012;40.984;2023-04-16T06:26:12;101818.06;;;7.86;26.40
59391;BME280;53405;57.012;40.984;2023-04-16T06:28:40;101826.06;;;7.95;26.82
59391;BME280;53405;57.012;40.984;2023-04-16T06:31:07;101814.16;;;8.03;28.29
59391;BME280;53405;57.012;40.984;2023-04-16T06:33:35;101817.88;;;8.11;26.56
59391;BME280;53405;57.012;40.984;2023-04-16T06:36:03;101816.94;;;8.24;26.40
59391;BME280;53405;57.012;40.984;2023-04-16T06:38:30;101817.91;;;8.34;24.24
59391;BME280;53405;57.012;40.984;2023-04-16T06:40:58;101817.69;;;8.48;23.93
59391;BME280;53405;57.012;40.984;2023-04-16T06:43:26;101810.50;;;8.62;24.82
59391;BME280;53405;57.012;40.984;2023-04-16T06:45:54;101793.59;;;8.55;25.47
59391;BME280;53405;57.012;40.984;2023-04-16T06:48:22;101795.47;;;8.75;24.66
59391;BME280;53405;57.012;40.984;2023-04-16T06:50:50;101801.66;;;8.85;24.08
59391;BME280;53405;57.012;40.984;2023-04-16T06:53:17;101794.91;;;9.04;25.12
59391;BME280;53405;57.012;40.984;2023-04-16T06:55:45;101797.72;;;9.23;23.42
59391;BME280;53405;57.012;40.984;2023-04-16T06:58:12;101795.81;;;9.14;23.93
59391;BME280;53405;57.012;40.984;2023-04-16T07:00:40;101794.84;;;8.94;22.06
59391;BME280;53405;57.012;40.984;2023-04-16T07:03:08;101783.00;;;8.89;22.73
59391;BME280;53405;57.012;40.984;2023-04-16T07:05:36;101793.09;;;9.16;22.61
59391;BME280;53405;57.012;40.984;2023-04-16T07:08:03;101791.00;;;9.31;22.67
59391;BME280;53405;57.012;40.984;2023-04-16T07:10:31;101784.03;;;9.41;21.97
59391;BME280;53405;57.012;40.984;2023-04-16T07:13:00;101788.19;;;9.44;20.46
59391;BME280;53405;57.012;40.984;2023-04-16T07:15:28;101791.53;;;9.46;21.36
59391;BME280;53405;57.012;40.984;2023-04-16T07:17:56;101760.84;;;9.35;19.60
59391;BME280;53405;57.012;40.984;2023-04-16T07:20:23;101781.38;;;9.41;20.81
59391;BME280;53405;57.012;40.984;2023-04-16T07:22:51;101782.75;;;9.56;20.12
59391;BME280;53405;57.012;40.984;2023-04-16T07:25:19;101785.56;;;9.65;20.00
59391;BME280;53405;57.012;40.984;2023-04-16T07:27:47;101782.22;;;9.84;20.13
59391;BME280;53405;57.012;40.984;2023-04-16T07:30:15;101777.63;;;9.97;21.04
59391;BME280;53405;57.012;40.984;2023-04-16T07:32:43;101775.50;;;9.91;19.98
59391;BME280;53405;57.012;40.984;2023-04-16T07:35:11;101768.69;;;9.88;20.73
59391;BME280;53405;57.012;40.984;2023-04-16T07:37:39;101774.41;;;9.93;22.12
59391;BME280;53405;57.012;40.984;2023-04-16T07:40:08;101775.41;;;10.02;21.26
59391;BME280;53405;57.012;40.984;2023-04-16T07:42:36;101777.97;;;10.13;20.75
59391;BME280;53405;57.012;40.984;2023-04-16T07:45:05;101779.25;;;10.19;19.92
59391;BME280;53405;57.012;40.984;2023-04-16T07:47:33;101762.03;;;10.36;19.44
59391;BME280;53405;57.012;40.984;2023-04-16T07:50:00;101766.19;;;10.39;19.30
59391;BME280;53405;57.012;40.984;2023-04-16T07:52:30;101772.19;;;10.51;19.13
59391;BME280;53405;57.012;40.984;2023-04-16T07:54:57;101764.97;;;10.53;19.59
59391;BME280;53405;57.012;40.984;2023-04-16T07:57:25;101758.78;;;10.63;19.86
59391;BME280;53405;57.012;40.984;2023-04-16T07:59:52;101762.19;;;10.44;18.92
59391;BME280;53405;57.012;40.984;2023-04-16T08:02:20;101759.31;;;10.57;20.44
59391;BME280;53405;57.012;40.984;2023-04-16T08:04:48;101767.47;;;10.54;19.25
59391;BME280;53405;57.012;40.984;2023-04-16T08:07:16;101763.94;;;10.75;19.34
59391;BME280;53405;57.012;40.984;2023-04-16T08:09:48;101759.94;;;11.00;19.73
59391;BME280;53405;57.012;40.984;2023-04-16T08:12:16;101755.94;;;10.96;19.49
59391;BME280;53405;57.012;40.984;2023-04-16T08:14:44;101748.44;;;11.01;18.25
59391;BME280;53405;57.012;40.984;2023-04-16T08:17:13;101755.09;;;11.25;21.01
59391;BME280;53405;57.012;40.984;2023-04-16T08:19:42;101752.59;;;11.33;18.31
59391;BME280;53405;57.012;40.984;2023-04-16T08:22:12;101753.28;;;11.15;17.88
59391;BME280;53405;57.012;40.984;2023-04-16T08:24:40;101756.75;;;11.16;17.67
59391;BME280;53405;57.012;40.984;2023-04-16T08:27:07;101716.50;;;11.24;17.37
59391;BME280;53405;57.012;40.984;2023-04-16T08:29:43;101745.19;;;11.66;17.78
59391;BME280;53405;57.012;40.984;2023-04-16T08:32:11;101745.31;;;11.93;18.30
59391;BME280;53405;57.012;40.984;2023-04-16T08:34:40;101740.56;;;12.25;17.21
59391;BME280;53405;57.012;40.984;2023-04-16T08:37:08;101709.78;;;12.16;16.53
59391;BME280;53405;57.012;40.984;2023-04-16T08:39:36;101738.66;;;12.45;16.21
59391;BME280;53405;57.012;40.984;2023-04-16T08:42:05;101734.63;;;12.69;16.89
59391;BME280;53405;57.012;40.984;2023-04-16T08:44:42;101732.41;;;12.46;18.00
59391;BME280;53405;57.012;40.984;2023-04-16T08:47:15;101724.44;;;12.74;16.38
59391;BME280;53405;57.012;40.984;2023-04-16T08:49:44;101721.28;;;12.88;16.34
59391;BME280;53405;57.012;40.984;2023-04-16T08:52:17;101723.31;;;12.94;16.13
59391;BME280;53405;57.012;40.984;2023-04-16T08:55:00;101722.19;;;13.15;16.38
59391;BME280;53405;57.012;40.984;2023-04-16T08:57:38;101719.13;;;13.46;16.66
59391;BME280;53405;57.012;40.984;2023-04-16T09:00:07;101718.16;;;13.47;17.26
59391;BME280;53405;57.012;40.984;2023-04-16T09:02:36;101715.75;;;13.17;15.29
59391;BME280;53405;57.012;40.984;2023-04-16T09:05:06;101705.94;;;12.92;16.19
59391;BME280;53405;57.012;40.984;2023-04-16T09:07:33;101712.28;;;12.99;16.01
59391;BME280;53405;57.012;40.984;2023-04-16T09:10:07;101710.00;;;13.22;15.82
59391;BME280;53405;57.012;40.984;2023-04-16T09:12:35;101711.81;;;13.40;15.83
59391;BME280;53405;57.012;40.984;2023-04-16T09:15:04;101713.56;;;13.31;15.62
59391;BME280;53405;57.012;40.984;2023-04-16T09:17:33;101707.69;;;13.37;17.62
59391;BME280;53405;57.012;40.984;2023-04-16T09:20:01;101709.78;;;13.86;16.56
59391;BME280;53405;57.012;40.984;2023-04-16T09:22:31;101704.63;;;14.19;16.40
59391;BME280;53405;57.012;40.984;2023-04-16T09:24:59;101695.03;;;14.18;15.02
59391;BME280;53405;57.012;40.984;2023-04-16T09:27:29;101702.38;;;14.32;14.62
59391;BME280;53405;57.012;40.984;2023-04-16T09:29:58;101694.47;;;14.57;15.53
59391;BME280;53405;57.012;40.984;2023-04-16T09:32:27;101693.31;;;14.51;16.12
59391;BME280;53405;57.012;40.984;2023-04-16T09:34:56;101683.72;;;14.58;14.91
59391;BME280;53405;57.012;40.984;2023-04-16T09:37:28;101691.53;;;14.17;14.83
59391;BME280;53405;57.012;40.984;2023-04-16T09:40:01;101691.13;;;14.46;15.31
59391;BME280;53405;57.012;40.984;2023-04-16T09:42:35;101685.22;;;14.69;14.99
59391;BME280;53405;57.012;40.984;2023-04-16T09:45:03;101680.38;;;14.56;15.01
59391;BME280;53405;57.012;40.984;2023-04-16T09:47:39;101678.13;;;14.19;14.62
59391;BME280;53405;57.012;40.984;2023-04-16T09:50:09;101668.84;;;14.15;14.92
59391;BME280;53405;57.012;40.984;2023-04-16T09:52:38;101649.06;;;13.84;14.81
59391;BME280;53405;57.012;40.984;2023-04-16T09:55:06;101665.59;;;14.37;14.78
59391;BME280;53405;57.012;40.984;2023-04-16T09:57:36;101658.03;;;14.59;14.55
59391;BME280;53405;57.012;40.984;2023-04-16T10:00:06;101666.22;;;14.82;14.71
59391;BME280;53405;57.012;40.984;2023-04-16T10:02:35;101658.84;;;14.59;14.20
59391;BME280;53405;57.012;40.984;2023-04-16T10:05:08;101660.22;;;14.80;14.42
59391;BME280;53405;57.012;40.984;2023-04-16T10:07:36;101643.59;;;15.35;14.66
59391;BME280;53405;57.012;40.984;2023-04-16T10:10:05;101662.13;;;16.08;14.50
59391;BME280;53405;57.012;40.984;2023-04-16T10:12:33;101652.22;;;15.94;13.56
59391;BME280;53405;57.012;40.984;2023-04-16T10:15:01;101653.69;;;15.57;13.51
59391;BME280;53405;57.012;40.984;2023-04-16T10:17:30;101647.44;;;15.08;14.07
59391;BME280;53405;57.012;40.984;2023-04-16T10:19:59;101655.88;;;15.36;13.72
59391;BME280;53405;57.012;40.984;2023-04-16T10:22:28;101655.41;;;15.25;13.83
59391;BME280;53405;57.012;40.984;2023-04-16T10:24:57;101619.44;;;15.14;14.04
59391;BME280;53405;57.012;40.984;2023-04-16T10:27:25;101638.19;;;15.85;13.92
59391;BME280;53405;57.012;40.984;2023-04-16T10:29:54;101637.34;;;16.16;14.09
59391;BME280;53405;57.012;40.984;2023-04-16T10:32:24;101622.69;;;16.51;13.64
59391;BME280;53405;57.012;40.984;2023-04-16T10:34:56;101630.00;;;17.10;13.20
59391;BME280;53405;57.012;40.984;2023-04-16T10:37:31;101630.16;;;17.47;13.01
59391;BME280;53405;57.012;40.984;2023-04-16T10:40:00;101629.75;;;17.50;12.89
59391;BME280;53405;57.012;40.984;2023-04-16T10:42:30;101620.78;;;17.51;13.05
59391;BME280;53405;57.012;40.984;2023-04-16T10:44:59;101636.72;;;18.11;12.62
59391;BME280;53405;57.012;40.984;2023-04-16T10:47:28;101636.63;;;18.62;11.69
59391;BME280;53405;57.012;40.984;2023-04-16T10:49:56;101637.91;;;18.88;11.88
59391;BME280;53405;57.012;40.984;2023-04-16T10:52:28;101637.28;;;18.86;11.95
59391;BME280;53405;57.012;40.984;2023-04-16T10:54:57;101628.16;;;18.15;11.93
59391;BME280;53405;57.012;40.984;2023-04-16T10:57:27;101628.38;;;17.84;12.13
59391;BME280;53405;57.012;40.984;2023-04-16T10:59:55;101635.41;;;18.21;12.26
59391;BME280;53405;57.012;40.984;2023-04-16T11:02:27;101637.88;;;18.45;11.84
59391;BME280;53405;57.012;40.984;2023-04-16T11:04:56;101636.31;;;18.72;11.60
59391;BME280;53405;57.012;40.984;2023-04-16T11:07:34;101629.34;;;18.77;11.18
59391;BME280;53405;57.012;40.984;2023-04-16T11:10:04;101629.81;;;18.81;12.65
59391;BME280;53405;57.012;40.984;2023-04-16T11:12:42;101622.56;;;18.96;10.98
59391;BME280;53405;57.012;40.984;2023-04-16T11:15:12;101613.84;;;17.86;12.04
59391;BME280;53405;57.012;40.984;2023-04-16T11:17:42;101620.75;;;17.96;11.77
59391;BME280;53405;57.012;40.984;2023-04-16T11:22:44;101608.19;;;17.60;11.87
59391;BME280;53405;57.012;40.984;2023-04-16T11:25:12;101611.50;;;17.17;12.52
59391;BME280;53405;57.012;40.984;2023-04-16T11:27:39;101600.47;;;17.05;12.34
59391;BME280;53405;57.012;40.984;2023-04-16T11:30:07;101605.41;;;17.08;12.75
59391;BME280;53405;57.012;40.984;2023-04-16T11:32:38;101594.13;;;17.51;12.06
59391;BME280;53405;57.012;40.984;2023-04-16T11:35:17;101605.41;;;17.53;12.33
59391;BME280;53405;57.012;40.984;2023-04-16T11:37:46;101592.81;;;16.64;14.42
59391;BME280;53405;57.012;40.984;2023-04-16T11:40:18;101589.56;;;16.54;13.90
59391;BME280;53405;57.012;40.984;2023-04-16T11:42:46;101593.06;;;17.15;12.65
59391;BME280;53405;57.012;40.984;2023-04-16T11:45:13;101596.34;;;17.32;12.65
59391;BME280;53405;57.012;40.984;2023-04-16T11:47:45;101598.97;;;17.03;14.52
59391;BME280;53405;57.012;40.984;2023-04-16T11:52:47;101589.91;;;16.74;13.03
59391;BME280;53405;57.012;40.984;2023-04-16T11:55:15;101579.25;;;16.74;13.46
59391;BME280;53405;57.012;40.984;2023-04-16T11:57:43;101579.63;;;16.94;13.28
59391;BME280;53405;57.012;40.984;2023-04-16T12:00:13;101575.88;;;17.63;13.04
59391;BME280;53405;57.012;40.984;2023-04-16T12:02:50;101575.66;;;18.16;12.55
59391;BME280;53405;57.012;40.984;2023-04-16T12:07:54;101580.22;;;18.65;12.33
59391;BME280;53405;57.012;40.984;2023-04-16T12:10:21;101570.63;;;18.99;12.06
59391;BME280;53405;57.012;40.984;2023-04-16T12:12:49;101564.69;;;18.97;13.63
59391;BME280;53405;57.012;40.984;2023-04-16T12:15:17;101558.78;;;19.08;12.35
59391;BME280;53405;57.012;40.984;2023-04-16T12:17:45;101562.41;;;19.36;11.58
59391;BME280;53405;57.012;40.984;2023-04-16T12:20:14;101549.78;;;19.58;12.24
59391;BME280;53405;57.012;40.984;2023-04-16T12:22:46;101550.03;;;19.21;11.72
59391;BME280;53405;57.012;40.984;2023-04-16T12:25:16;101554.91;;;19.11;11.70
59391;BME280;53405;57.012;40.984;2023-04-16T12:27:51;101527.72;;;19.01;11.94
59391;BME280;53405;57.012;40.984;2023-04-16T12:30:24;101545.81;;;19.47;11.15
59391;BME280;53405;57.012;40.984;2023-04-16T12:33:16;101546.75;;;19.26;10.75
59391;BME280;53405;57.012;40.984;2023-04-16T12:35:45;101542.00;;;19.21;11.18
59391;BME280;53405;57.012;40.984;2023-04-16T12:38:13;101542.81;;;18.87;11.05
59391;BME280;53405;57.012;40.984;2023-04-16T12:40:44;101540.41;;;18.42;12.16
59391;BME280;53405;57.012;40.984;2023-04-16T12:43:12;101531.44;;;18.21;13.62
59391;BME280;53405;57.012;40.984;2023-04-16T12:45:39;101533.31;;;18.06;12.88
59391;BME280;53405;57.012;40.984;2023-04-16T12:48:07;101529.25;;;17.88;11.78
59391;BME280;53405;57.012;40.984;2023-04-16T12:50:37;101522.13;;;17.96;12.28
59391;BME280;53405;57.012;40.984;2023-04-16T12:53:06;101522.13;;;17.96;12.04
59391;BME280;53405;57.012;40.984;2023-04-16T12:55:34;101523.38;;;17.27;11.61
59391;BME280;53405;57.012;40.984;2023-04-16T12:58:01;101520.72;;;16.97;12.03
59391;BME280;53405;57.012;40.984;2023-04-16T13:00:29;101518.34;;;17.17;12.63
59391;BME280;53405;57.012;40.984;2023-04-16T13:02:59;101517.69;;;17.30;11.70